createdAt,value
2018-10-05T00:02:25.947Z,13.50
2018-10-05T00:05:59.179Z,12.10
2018-10-05T00:09:32.420Z,12.70
2018-10-05T00:13:05.703Z,14.70
2018-10-05T00:16:38.925Z,13.27
2018-10-05T00:20:12.164Z,11.97
2018-10-05T00:23:45.397Z,12.80
2018-10-05T00:27:18.603Z,11.70
2018-10-05T00:30:51.840Z,12.90
2018-10-05T00:34:25.064Z,12.80
2018-10-05T00:37:58.341Z,13.20
2018-10-05T00:41:31.524Z,11.57
2018-10-05T00:45:05.144Z,13.20
2018-10-05T00:48:38.415Z,11.30
2018-10-05T00:52:11.628Z,12.83
2018-10-05T00:55:44.860Z,12.43
2018-10-05T00:59:18.083Z,11.53
2018-10-05T01:02:51.291Z,13.23
2018-10-05T01:06:24.589Z,12.80
2018-10-05T01:09:57.927Z,11.60
2018-10-05T01:13:31.159Z,13.20
2018-10-05T01:17:04.370Z,11.43
2018-10-05T01:20:37.607Z,11.13
2018-10-05T01:24:10.832Z,12.03
2018-10-05T01:27:44.037Z,11.40
2018-10-05T01:31:17.265Z,11.67
2018-10-05T01:34:50.480Z,11.40
2018-10-05T01:38:23.713Z,10.63
2018-10-05T01:41:56.921Z,10.90
2018-10-05T01:45:30.144Z,10.13
2018-10-05T01:49:03.411Z,12.30
2018-10-05T01:52:36.626Z,11.97
2018-10-05T01:56:09.856Z,11.50
2018-10-05T01:59:43.088Z,11.40
2018-10-05T02:03:16.287Z,10.93
2018-10-05T02:06:49.560Z,11.43
2018-10-05T02:10:22.793Z,12.53
2018-10-05T02:13:56.029Z,11.17
2018-10-05T02:17:29.244Z,13.40
2018-10-05T02:21:02.469Z,11.93
2018-10-05T02:24:35.693Z,13.87
2018-10-05T02:28:08.911Z,13.20
2018-10-05T02:31:42.137Z,15.40
2018-10-05T02:35:15.362Z,12.77
2018-10-05T02:38:48.589Z,13.70
2018-10-05T02:42:21.811Z,11.53
2018-10-05T02:45:55.033Z,13.10
2018-10-05T02:49:28.259Z,12.23
2018-10-05T02:53:01.476Z,12.07
2018-10-05T02:56:34.728Z,12.73
2018-10-05T03:00:18.036Z,12.90
2018-10-05T03:03:51.249Z,11.63
2018-10-05T03:07:24.904Z,11.47
2018-10-05T03:10:58.135Z,11.70
2018-10-05T03:14:31.367Z,11.80
2018-10-05T03:18:04.637Z,12.47
2018-10-05T03:21:37.864Z,13.57
2018-10-05T03:25:11.088Z,13.60
2018-10-05T03:28:44.467Z,14.40
2018-10-05T03:32:17.687Z,11.97
2018-10-05T03:35:50.921Z,12.27
2018-10-05T03:39:24.380Z,12.97
2018-10-05T03:42:57.615Z,10.67
2018-10-05T03:46:31.508Z,11.63
2018-10-05T03:50:04.728Z,13.27
2018-10-05T03:53:37.944Z,11.97
2018-10-05T03:57:11.173Z,12.57
2018-10-05T04:00:44.418Z,12.70
2018-10-05T04:04:17.631Z,12.20
2018-10-05T04:07:50.852Z,12.00
2018-10-05T04:11:24.101Z,12.27
2018-10-05T04:14:57.330Z,11.50
2018-10-05T04:18:30.561Z,11.23
2018-10-05T04:22:03.789Z,13.37
2018-10-05T04:25:37.012Z,12.27
2018-10-05T04:29:10.229Z,12.57
2018-10-05T04:32:43.447Z,12.47
2018-10-05T04:36:16.693Z,13.43
2018-10-05T04:39:49.913Z,12.13
2018-10-05T04:43:23.145Z,11.93
2018-10-05T04:46:56.392Z,11.50
2018-10-05T04:50:29.643Z,11.83
2018-10-05T04:54:02.875Z,12.33
2018-10-05T04:57:36.137Z,11.13
2018-10-05T05:01:09.364Z,12.40
2018-10-05T05:04:42.600Z,12.80
2018-10-05T05:08:15.827Z,12.30
2018-10-05T05:11:49.131Z,12.03
2018-10-05T05:15:22.464Z,12.30
2018-10-05T05:18:55.709Z,12.60
2018-10-05T05:22:29.045Z,13.43
2018-10-05T05:26:02.275Z,11.50
2018-10-05T05:29:35.732Z,12.00
2018-10-05T05:33:09.112Z,12.97
2018-10-05T05:36:42.360Z,13.50
2018-10-05T05:40:15.639Z,12.97
2018-10-05T05:43:48.907Z,14.53
2018-10-05T05:47:22.127Z,12.93
2018-10-05T05:50:55.368Z,12.87
2018-10-05T05:54:28.652Z,11.70
2018-10-05T05:58:01.859Z,13.73
2018-10-05T06:01:35.068Z,12.57
2018-10-05T06:05:08.296Z,13.10
2018-10-05T06:08:41.525Z,12.60
2018-10-05T06:12:16.568Z,12.03
2018-10-05T06:15:49.851Z,13.40
2018-10-05T06:19:23.080Z,12.10
2018-10-05T06:22:56.323Z,13.27
2018-10-05T06:26:29.910Z,12.67
2018-10-05T06:30:03.164Z,13.70
2018-10-05T06:33:36.439Z,14.00
2018-10-05T06:37:09.664Z,12.43
2018-10-05T06:40:42.900Z,12.83
2018-10-05T06:44:16.142Z,14.10
2018-10-05T06:47:49.387Z,13.73
2018-10-05T06:51:23.186Z,13.80
2018-10-05T06:54:56.436Z,15.00
2018-10-05T06:58:29.658Z,14.30
2018-10-05T07:02:02.870Z,12.70
2018-10-05T07:05:36.135Z,15.03
2018-10-05T07:09:09.380Z,15.00
2018-10-05T07:12:42.613Z,15.90
2018-10-05T07:16:15.828Z,15.83
2018-10-05T07:19:49.070Z,14.93
2018-10-05T07:23:22.368Z,14.03
2018-10-05T07:26:55.598Z,14.67
2018-10-05T07:30:28.823Z,16.67
2018-10-05T07:34:02.116Z,17.67
2018-10-05T07:37:35.352Z,15.57
2018-10-05T07:41:08.581Z,16.20
2018-10-05T07:44:41.847Z,16.80
2018-10-05T07:48:15.080Z,17.57
2018-10-05T07:51:48.331Z,17.67
2018-10-05T07:55:21.552Z,18.10
2018-10-05T07:58:54.812Z,16.33
2018-10-05T08:02:28.044Z,16.97
2018-10-05T08:06:01.263Z,17.70
2018-10-05T08:09:34.523Z,16.80
2018-10-05T08:13:07.759Z,19.47
2018-10-05T08:16:40.984Z,15.83
2018-10-05T08:20:14.224Z,17.90
2018-10-05T08:23:47.476Z,16.00
2018-10-05T08:27:21.508Z,16.60
2018-10-05T08:30:55.627Z,16.20
2018-10-05T08:34:30.338Z,15.00
2018-10-05T08:38:03.790Z,13.40
2018-10-05T08:41:38.350Z,13.87
2018-10-05T08:45:14.350Z,12.30
2018-10-05T08:48:47.664Z,12.40
2018-10-05T08:52:20.900Z,11.83
2018-10-05T08:55:54.222Z,12.13
2018-10-05T08:59:27.456Z,13.40
2018-10-05T09:03:00.688Z,12.50
2018-10-05T09:06:33.914Z,11.97
2018-10-05T09:10:07.565Z,11.83
2018-10-05T09:13:40.815Z,12.27
2018-10-05T09:17:14.044Z,11.10
2018-10-05T09:20:47.284Z,11.77
2018-10-05T09:24:20.523Z,12.27
2018-10-05T09:27:53.744Z,13.23
2018-10-05T09:31:26.997Z,11.50
2018-10-05T09:35:00.317Z,12.40
2018-10-05T09:38:33.573Z,12.80
2018-10-05T09:42:06.972Z,12.60
2018-10-05T09:45:40.191Z,11.63
2018-10-05T09:49:13.435Z,11.33
2018-10-05T09:52:46.672Z,11.77
2018-10-05T09:56:19.904Z,11.77
2018-10-05T09:59:53.238Z,11.97
2018-10-05T10:03:29.496Z,11.00
2018-10-05T10:07:02.687Z,10.87
2018-10-05T10:10:35.919Z,11.17
2018-10-05T10:14:09.181Z,8.37
2018-10-05T10:17:42.420Z,7.20
2018-10-05T10:21:15.746Z,7.60
2018-10-05T10:24:48.982Z,6.97
2018-10-05T10:28:22.245Z,7.03
2018-10-05T10:31:55.454Z,7.27
2018-10-05T10:35:28.709Z,6.70
2018-10-05T10:39:01.929Z,6.53
2018-10-05T10:42:35.167Z,6.40
2018-10-05T10:46:08.452Z,6.00
2018-10-05T10:49:41.704Z,6.43
2018-10-05T10:53:14.951Z,5.80
2018-10-05T10:56:48.199Z,5.13
2018-10-05T11:00:21.433Z,4.53
2018-10-05T11:03:54.670Z,4.77
2018-10-05T11:07:27.904Z,5.90
2018-10-05T11:11:01.173Z,6.17
2018-10-05T11:14:34.444Z,4.60
2018-10-05T11:18:07.672Z,4.50
2018-10-05T11:21:40.900Z,4.87
2018-10-05T11:25:14.117Z,4.70
2018-10-05T11:28:47.356Z,6.73
2018-10-05T11:32:20.585Z,6.00
2018-10-05T11:35:53.796Z,4.33
2018-10-05T11:39:27.043Z,4.30
2018-10-05T11:43:00.294Z,5.47
2018-10-05T11:46:33.512Z,4.20
2018-10-05T11:50:06.764Z,5.20
2018-10-05T11:53:39.993Z,4.90
2018-10-05T11:57:13.220Z,5.50
2018-10-05T12:00:46.454Z,4.70
2018-10-05T12:04:19.683Z,4.20
2018-10-05T12:07:52.971Z,4.50
2018-10-05T12:11:26.248Z,4.73
2018-10-05T12:14:59.512Z,3.87
2018-10-05T12:18:32.741Z,4.23
2018-10-05T12:22:06.086Z,3.77
2018-10-05T12:25:39.324Z,5.00
2018-10-05T12:29:12.541Z,4.47
2018-10-05T12:32:45.836Z,3.90
2018-10-05T12:36:19.083Z,3.20
2018-10-05T12:39:52.303Z,4.87
2018-10-05T12:43:25.555Z,3.43
2018-10-05T12:46:59.310Z,3.77
2018-10-05T12:50:32.560Z,3.90
2018-10-05T12:54:05.812Z,3.50
2018-10-05T12:57:39.036Z,5.20
2018-10-05T13:01:12.265Z,4.10
2018-10-05T13:04:45.518Z,3.77
2018-10-05T13:08:18.749Z,3.83
2018-10-05T13:11:51.980Z,4.10
2018-10-05T13:15:25.227Z,3.93
2018-10-05T13:18:58.456Z,3.10
2018-10-05T13:22:31.675Z,3.40
2018-10-05T13:26:04.912Z,3.27
2018-10-05T13:29:38.137Z,3.33
2018-10-05T13:33:11.371Z,3.77
2018-10-05T13:36:44.600Z,3.50
2018-10-05T13:40:17.819Z,4.00
2018-10-05T13:43:51.044Z,3.10
2018-10-05T13:47:24.275Z,4.20
2018-10-05T13:50:57.521Z,4.00
2018-10-05T13:54:30.768Z,5.27
2018-10-05T13:58:03.992Z,4.43
2018-10-05T14:01:37.236Z,4.10
2018-10-05T14:05:10.456Z,4.03
2018-10-05T14:08:43.718Z,4.83
2018-10-05T14:12:16.976Z,3.83
2018-10-05T14:15:50.217Z,3.47
2018-10-05T14:19:23.440Z,4.07
2018-10-05T14:22:56.896Z,3.97
2018-10-05T14:26:30.107Z,3.60
2018-10-05T14:30:03.346Z,3.37
2018-10-05T14:33:36.604Z,3.73
2018-10-05T14:37:09.852Z,2.80
2018-10-05T14:40:43.112Z,4.20
2018-10-05T14:44:16.340Z,3.50
2018-10-05T14:47:49.579Z,3.00
2018-10-05T14:51:22.843Z,4.17
2018-10-05T14:54:56.600Z,4.77
2018-10-05T14:58:29.835Z,3.90
2018-10-05T15:02:03.053Z,4.00
2018-10-05T15:05:36.305Z,4.83
2018-10-05T15:09:09.565Z,5.10
2018-10-05T15:12:42.865Z,5.30
2018-10-05T15:16:16.045Z,4.43
2018-10-05T15:19:49.335Z,5.13
2018-10-05T15:23:22.558Z,5.17
2018-10-05T15:26:55.793Z,3.70
2018-10-05T15:30:29.013Z,4.87
2018-10-05T15:34:02.618Z,4.03
2018-10-05T15:37:35.860Z,4.37
2018-10-05T15:41:09.178Z,3.93
2018-10-05T15:44:42.421Z,5.20
2018-10-05T15:48:15.659Z,4.77
2018-10-05T15:51:49.160Z,5.30
2018-10-05T15:55:22.396Z,5.27
2018-10-05T15:58:56.468Z,4.00
2018-10-05T16:02:29.692Z,4.43
2018-10-05T16:06:03.818Z,5.17
2018-10-05T16:09:37.076Z,6.00
2018-10-05T16:13:10.299Z,6.13
2018-10-05T16:16:43.516Z,5.87
2018-10-05T16:20:16.749Z,7.57
2018-10-05T16:23:50.688Z,5.47
2018-10-05T16:27:23.902Z,5.20
2018-10-05T16:30:57.157Z,5.50
2018-10-05T16:34:30.362Z,5.93
2018-10-05T16:38:03.599Z,5.83
2018-10-05T16:41:36.905Z,5.70
2018-10-05T16:45:10.101Z,6.00
2018-10-05T16:48:43.363Z,5.50
2018-10-05T16:52:16.583Z,6.60
2018-10-05T16:55:49.810Z,6.40
2018-10-05T16:59:24.036Z,11.57
2018-10-05T17:02:57.273Z,10.57
2018-10-05T17:06:30.887Z,8.87
2018-10-05T17:10:04.132Z,8.83
2018-10-05T17:13:37.369Z,10.10
2018-10-05T17:17:10.664Z,10.80
2018-10-05T17:20:43.830Z,9.07
2018-10-05T17:24:17.121Z,9.70
2018-10-05T17:27:50.347Z,8.77
2018-10-05T17:31:23.764Z,10.80
2018-10-05T17:34:57.074Z,14.03
2018-10-05T17:38:30.256Z,13.80
2018-10-05T17:42:03.496Z,14.23
2018-10-05T17:45:36.728Z,13.07
2018-10-05T17:49:10.005Z,12.80
2018-10-05T17:52:43.361Z,11.70
2018-10-05T17:56:16.622Z,9.60
2018-10-05T17:59:49.864Z,11.10
2018-10-05T18:03:23.153Z,9.70
2018-10-05T18:06:56.603Z,8.90
2018-10-05T18:10:29.828Z,10.23
2018-10-05T18:14:03.120Z,8.40
2018-10-05T18:17:36.335Z,7.00
2018-10-05T18:21:09.575Z,4.97
2018-10-05T18:24:42.829Z,6.03
2018-10-05T18:28:16.080Z,6.00
2018-10-05T18:31:49.320Z,6.80
2018-10-05T18:35:22.543Z,6.27
2018-10-05T18:38:55.793Z,7.17
2018-10-05T18:42:29.027Z,5.40
2018-10-05T18:46:02.269Z,5.97
2018-10-05T18:49:35.513Z,6.20
2018-10-05T18:53:08.749Z,5.30
2018-10-05T18:56:53.465Z,6.80
2018-10-05T19:00:26.692Z,7.50
2018-10-05T19:04:00.028Z,11.27
2018-10-05T19:07:33.279Z,15.60
2018-10-05T19:11:06.540Z,12.67
2018-10-05T19:14:39.784Z,9.80
2018-10-05T19:18:13.017Z,9.07
2018-10-05T19:21:46.265Z,7.90
2018-10-05T19:25:19.865Z,6.70
2018-10-05T19:28:53.107Z,8.30
2018-10-05T19:32:26.336Z,6.53
2018-10-05T19:35:59.648Z,6.90
2018-10-05T19:39:32.912Z,9.10
2018-10-05T19:43:06.177Z,10.03
2018-10-05T19:46:39.769Z,8.60
2018-10-05T19:50:12.994Z,8.80
2018-10-05T19:53:46.423Z,9.63
2018-10-05T19:57:19.617Z,9.83
2018-10-05T20:00:52.879Z,9.77
2018-10-05T20:04:26.137Z,9.37
2018-10-05T20:07:59.412Z,9.10
2018-10-05T20:11:33.298Z,11.80
2018-10-05T20:15:06.894Z,9.10
2018-10-05T20:18:40.940Z,10.70
2018-10-05T20:22:15.172Z,13.10
2018-10-05T20:25:48.431Z,12.33
2018-10-05T20:29:22.441Z,8.93
2018-10-05T20:32:55.796Z,9.03
2018-10-05T20:36:29.171Z,8.57
2018-10-05T20:40:02.752Z,8.87
2018-10-05T20:43:35.984Z,8.00
2018-10-05T20:47:09.887Z,7.77
2018-10-05T20:50:43.117Z,7.20
2018-10-05T20:54:17.108Z,7.97
2018-10-05T20:57:50.395Z,8.10
2018-10-05T21:01:24.149Z,8.40
2018-10-05T21:04:57.396Z,7.63
2018-10-05T21:08:30.644Z,8.87
2018-10-05T21:12:03.916Z,7.87
2018-10-05T21:15:37.152Z,7.87
2018-10-05T21:19:10.388Z,8.43
2018-10-05T21:22:43.619Z,8.10
2018-10-05T21:26:16.859Z,8.50
2018-10-05T21:29:50.105Z,8.90
2018-10-05T21:33:23.424Z,13.87
2018-10-05T21:36:56.628Z,8.53
2018-10-05T21:40:29.945Z,10.20
2018-10-05T21:44:03.199Z,9.67
2018-10-05T21:47:36.420Z,9.13
2018-10-05T21:51:09.657Z,9.40
2018-10-05T21:54:42.917Z,9.57
2018-10-05T21:58:16.218Z,11.47
2018-10-05T22:01:49.459Z,11.77
2018-10-05T22:05:22.692Z,10.63
2018-10-05T22:08:55.913Z,9.47
2018-10-05T22:12:29.732Z,10.43
2018-10-05T22:16:03.028Z,10.63
2018-10-05T22:19:36.329Z,8.53
2018-10-05T22:23:09.504Z,9.37
2018-10-05T22:26:42.732Z,10.50
2018-10-05T22:30:15.969Z,10.77
2018-10-05T22:33:49.228Z,12.10
2018-10-05T22:37:22.467Z,10.23
2018-10-05T22:40:55.725Z,10.23
2018-10-05T22:44:28.947Z,9.13
2018-10-05T22:48:02.186Z,11.40
2018-10-05T22:51:35.428Z,9.67
2018-10-05T22:55:08.657Z,9.60
2018-10-05T22:58:41.874Z,9.10
2018-10-05T23:02:15.107Z,9.57
2018-10-05T23:05:48.364Z,9.47
2018-10-05T23:09:21.590Z,10.60
2018-10-05T23:12:54.842Z,8.33
2018-10-05T23:16:28.075Z,8.77
2018-10-05T23:20:01.291Z,8.97
2018-10-05T23:23:34.554Z,10.23
2018-10-05T23:27:07.960Z,9.40
2018-10-05T23:30:41.193Z,9.37
2018-10-05T23:34:14.413Z,9.70
2018-10-05T23:37:47.656Z,9.17
2018-10-05T23:41:20.984Z,8.90
2018-10-05T23:44:54.198Z,8.83
2018-10-05T23:48:27.432Z,9.33
2018-10-05T23:52:09.524Z,10.50
2018-10-05T23:55:42.739Z,9.00
2018-10-05T23:59:15.965Z,8.97
